createdAt,value
2023-03-29T00:00:19.980Z,100293.13
2023-03-29T00:03:17.304Z,100306.95
2023-03-29T00:05:51.760Z,100301.90
2023-03-29T00:08:25.990Z,100302.31
2023-03-29T00:11:04.315Z,100302.72
2023-03-29T00:13:38.797Z,100314.91
2023-03-29T00:16:13.809Z,100317.61
2023-03-29T00:18:47.442Z,100317.40
2023-03-29T00:21:24.301Z,100319.67
2023-03-29T00:23:58.644Z,100305.72
2023-03-29T00:26:32.306Z,100312.91
2023-03-29T00:29:05.791Z,100323.79
2023-03-29T00:31:39.442Z,100322.23
2023-03-29T00:34:12.752Z,100323.34
2023-03-29T00:36:46.639Z,100315.85
2023-03-29T00:39:21.249Z,100324.73
2023-03-29T00:41:55.904Z,100327.95
2023-03-29T00:45:04.928Z,100315.17
2023-03-29T00:47:47.389Z,100320.17
2023-03-29T00:50:31.554Z,100324.15
2023-03-29T00:53:10.510Z,100327.38
2023-03-29T00:56:14.658Z,100326.27
2023-03-29T00:59:03.080Z,100327.70
2023-03-29T01:01:45.874Z,100328.95
2023-03-29T01:04:37.543Z,100330.52
2023-03-29T01:07:36.005Z,100326.89
2023-03-29T01:10:25.471Z,100328.45
2023-03-29T01:13:10.082Z,100329.85
2023-03-29T01:15:47.512Z,100329.90
2023-03-29T01:18:22.853Z,100325.02
2023-03-29T01:21:21.026Z,100333.00
2023-03-29T01:24:10.223Z,100333.17
2023-03-29T01:26:47.351Z,100337.77
2023-03-29T01:29:54.996Z,100346.09
2023-03-29T01:32:48.572Z,100346.06
2023-03-29T01:35:43.211Z,100350.66
2023-03-29T01:38:28.642Z,100338.78
2023-03-29T01:41:04.178Z,100343.75
2023-03-29T01:43:45.195Z,100358.83
2023-03-29T01:46:38.366Z,100359.43
2023-03-29T01:49:30.170Z,100365.33
2023-03-29T01:52:13.466Z,100342.84
2023-03-29T01:55:01.936Z,100364.64
2023-03-29T01:57:36.696Z,100356.17
2023-03-29T02:00:13.222Z,100364.67
2023-03-29T02:02:49.951Z,100362.92
2023-03-29T02:05:27.401Z,100365.08
2023-03-29T02:08:06.673Z,100364.25
2023-03-29T02:10:40.475Z,100358.45
2023-03-29T02:13:14.272Z,100351.27
2023-03-29T02:15:51.448Z,100365.79
2023-03-29T02:18:25.292Z,100358.34
2023-03-29T02:21:00.074Z,100354.35
2023-03-29T02:23:49.651Z,100367.35
2023-03-29T02:26:24.914Z,100369.81
2023-03-29T02:28:58.800Z,100350.89
2023-03-29T02:31:59.841Z,100373.39
2023-03-29T02:34:38.177Z,100367.70
2023-03-29T02:37:16.633Z,100380.34
2023-03-29T02:39:53.469Z,100386.14
2023-03-29T02:42:28.807Z,100387.80
2023-03-29T02:45:04.419Z,100386.85
2023-03-29T02:47:43.758Z,100385.65
2023-03-29T02:50:17.772Z,100394.73
2023-03-29T02:53:02.383Z,100394.84
2023-03-29T02:55:37.075Z,100402.77
2023-03-29T02:58:11.586Z,100401.73
2023-03-29T03:00:51.346Z,100404.86
2023-03-29T03:03:26.171Z,100411.38
2023-03-29T03:06:02.332Z,100414.38
2023-03-29T03:08:37.107Z,100400.00
2023-03-29T03:11:10.950Z,100393.74
2023-03-29T03:13:44.834Z,100422.54
2023-03-29T03:16:18.734Z,100426.34
2023-03-29T03:18:54.633Z,100412.60
2023-03-29T03:21:30.392Z,100431.38
2023-03-29T03:24:08.597Z,100428.45
2023-03-29T03:26:42.442Z,100415.94
2023-03-29T03:29:16.929Z,100418.59
2023-03-29T03:32:19.473Z,100424.77
2023-03-29T03:34:57.020Z,100444.36
2023-03-29T03:37:32.014Z,100446.23
2023-03-29T03:40:11.349Z,100448.48
2023-03-29T03:42:45.053Z,100450.99
2023-03-29T03:45:19.470Z,100438.17
2023-03-29T03:48:10.433Z,100444.45
2023-03-29T03:50:57.004Z,100456.31
2023-03-29T03:53:31.867Z,100456.16
2023-03-29T03:56:30.404Z,100455.27
2023-03-29T03:59:24.665Z,100449.05
2023-03-29T04:02:14.203Z,100459.89
2023-03-29T04:04:50.323Z,100463.98
2023-03-29T04:07:26.278Z,100471.98
2023-03-29T04:10:17.013Z,100473.45
2023-03-29T04:13:09.196Z,100475.38
2023-03-29T04:15:55.019Z,100474.43
2023-03-29T04:18:28.927Z,100471.04
2023-03-29T04:21:05.546Z,100470.05
2023-03-29T04:23:39.703Z,100476.70
2023-03-29T04:26:13.103Z,100476.08
2023-03-29T04:28:46.830Z,100476.02
2023-03-29T04:31:29.996Z,100463.02
2023-03-29T04:34:15.929Z,100476.98
2023-03-29T04:36:53.944Z,100479.55
2023-03-29T04:39:36.687Z,100481.20
2023-03-29T04:42:12.166Z,100477.55
2023-03-29T04:44:46.319Z,100478.52
2023-03-29T04:47:23.791Z,100483.79
2023-03-29T04:50:02.288Z,100486.37
2023-03-29T04:52:45.917Z,100491.55
2023-03-29T04:55:19.670Z,100495.31
2023-03-29T04:58:23.081Z,100495.73
2023-03-29T05:01:01.880Z,100482.47
2023-03-29T05:03:42.552Z,100497.42
2023-03-29T05:06:25.705Z,100492.45
2023-03-29T05:08:59.636Z,100504.94
2023-03-29T05:11:40.387Z,100490.45
2023-03-29T05:14:14.647Z,100494.81
2023-03-29T05:16:48.433Z,100506.33
2023-03-29T05:19:22.566Z,100513.98
2023-03-29T05:21:56.259Z,100508.08
2023-03-29T05:24:30.404Z,100482.55
2023-03-29T05:27:09.284Z,100504.72
2023-03-29T05:29:43.172Z,100514.48
2023-03-29T05:32:41.273Z,100522.08
2023-03-29T05:35:15.834Z,100524.78
2023-03-29T05:37:52.310Z,100530.08
2023-03-29T05:40:26.722Z,100525.61
2023-03-29T05:43:22.355Z,100533.08
2023-03-29T05:45:58.517Z,100524.66
2023-03-29T05:48:33.107Z,100537.15
2023-03-29T05:51:06.308Z,100532.04
2023-03-29T05:53:39.504Z,100541.54
2023-03-29T05:56:16.983Z,100535.02
2023-03-29T05:58:54.971Z,100542.64
2023-03-29T06:01:29.286Z,100541.24
2023-03-29T06:04:10.139Z,100538.97
2023-03-29T06:06:49.199Z,100538.36
2023-03-29T06:09:23.462Z,100550.95
2023-03-29T06:12:14.741Z,100542.15
2023-03-29T06:14:58.900Z,100560.13
2023-03-29T06:17:37.768Z,100561.02
2023-03-29T06:20:12.345Z,100563.89
2023-03-29T06:22:48.486Z,100563.56
2023-03-29T06:25:21.966Z,100560.45
2023-03-29T06:27:56.313Z,100557.73
2023-03-29T06:30:29.933Z,100560.35
2023-03-29T06:33:03.627Z,100558.05
2023-03-29T06:35:58.214Z,100569.08
2023-03-29T06:38:34.352Z,100586.65
2023-03-29T06:41:29.747Z,100580.77
2023-03-29T06:44:13.993Z,100589.23
2023-03-29T06:47:00.010Z,100581.55
2023-03-29T06:49:33.114Z,100579.03
2023-03-29T06:52:27.632Z,100579.81
2023-03-29T06:55:02.290Z,100595.84
2023-03-29T06:57:35.388Z,100584.97
2023-03-29T07:00:20.355Z,100595.39
2023-03-29T07:03:27.038Z,100604.58
2023-03-29T07:06:13.050Z,100604.80
2023-03-29T07:08:47.789Z,100610.33
2023-03-29T07:11:27.229Z,100598.35
2023-03-29T07:14:03.896Z,100609.17
2023-03-29T07:16:38.328Z,100600.98
2023-03-29T07:19:24.648Z,100602.39
2023-03-29T07:21:59.176Z,100614.48
2023-03-29T07:24:44.568Z,100605.23
2023-03-29T07:27:18.760Z,100610.39
2023-03-29T07:29:54.718Z,100615.77
2023-03-29T07:32:29.302Z,100609.25
2023-03-29T07:35:18.449Z,100617.13
2023-03-29T07:37:53.114Z,100616.84
2023-03-29T07:40:27.751Z,100621.01
2023-03-29T07:43:09.732Z,100632.20
2023-03-29T07:45:45.998Z,100626.30
2023-03-29T07:48:20.592Z,100627.75
2023-03-29T07:51:00.083Z,100622.61
2023-03-29T07:53:43.599Z,100624.86
2023-03-29T07:56:37.658Z,100628.59
2023-03-29T07:59:52.248Z,100631.55
2023-03-29T08:02:29.683Z,100625.11
2023-03-29T08:05:05.658Z,100604.28
2023-03-29T08:07:54.570Z,100610.67
2023-03-29T08:10:43.772Z,100630.59
2023-03-29T08:13:25.254Z,100635.73
2023-03-29T08:16:22.939Z,100646.30
2023-03-29T08:19:03.635Z,100641.85
2023-03-29T08:21:54.724Z,100639.02
2023-03-29T08:24:30.304Z,100633.55
2023-03-29T08:27:07.492Z,100620.77
2023-03-29T08:29:42.153Z,100633.46
2023-03-29T08:32:15.836Z,100641.44
2023-03-29T08:34:49.403Z,100634.13
2023-03-29T08:37:35.120Z,100621.73
2023-03-29T08:40:09.039Z,100627.58
2023-03-29T08:43:04.637Z,100645.87
2023-03-29T08:46:11.626Z,100635.83
2023-03-29T08:48:54.527Z,100626.15
2023-03-29T08:51:43.139Z,100617.01
2023-03-29T08:54:27.580Z,100635.06
2023-03-29T08:57:28.960Z,100643.30
2023-03-29T09:00:11.085Z,100625.14
2023-03-29T09:02:48.003Z,100638.74
2023-03-29T09:05:35.478Z,100630.15
2023-03-29T09:08:28.158Z,100637.63
2023-03-29T09:11:34.000Z,100646.34
2023-03-29T09:14:16.259Z,100675.33
2023-03-29T09:17:01.677Z,100668.00
2023-03-29T09:19:44.998Z,100689.92
2023-03-29T09:22:25.243Z,100682.61
2023-03-29T09:25:25.583Z,100686.38
2023-03-29T09:28:15.962Z,100688.69
2023-03-29T09:31:28.105Z,100680.69
2023-03-29T09:34:06.495Z,100669.42
2023-03-29T09:37:13.712Z,100655.97
2023-03-29T09:39:47.686Z,100667.15
2023-03-29T09:42:22.400Z,100665.75
2023-03-29T09:44:59.517Z,100650.29
2023-03-29T09:47:55.030Z,100657.98
2023-03-29T09:50:38.638Z,100658.13
2023-03-29T09:53:15.808Z,100656.88
2023-03-29T09:55:54.367Z,100653.33
2023-03-29T09:58:58.533Z,100658.98
2023-03-29T10:01:41.938Z,100646.86
2023-03-29T10:04:17.603Z,100670.89
2023-03-29T10:06:57.378Z,100675.75
2023-03-29T10:09:33.091Z,100675.17
2023-03-29T10:12:19.670Z,100680.42
2023-03-29T10:14:56.313Z,100670.12
2023-03-29T10:17:34.135Z,100678.27
2023-03-29T10:20:10.232Z,100678.38
2023-03-29T10:22:56.986Z,100691.59
2023-03-29T10:25:33.496Z,100687.94
2023-03-29T10:28:17.984Z,100677.88
2023-03-29T10:30:57.481Z,100684.20
2023-03-29T10:33:38.470Z,100689.14
2023-03-29T10:36:14.636Z,100676.67
2023-03-29T10:38:48.294Z,100667.92
2023-03-29T10:41:24.507Z,100673.48
2023-03-29T10:43:57.609Z,100689.70
2023-03-29T10:46:45.065Z,100678.08
2023-03-29T10:49:22.500Z,100673.79
2023-03-29T10:51:55.778Z,100685.16
2023-03-29T10:54:29.488Z,100698.93
2023-03-29T10:57:09.073Z,100691.94
2023-03-29T10:59:49.457Z,100689.52
2023-03-29T11:02:48.335Z,100685.79
2023-03-29T11:06:04.720Z,100670.30
2023-03-29T11:08:37.279Z,100674.77
2023-03-29T11:11:25.093Z,100675.65
2023-03-29T11:14:05.493Z,100685.46
2023-03-29T11:17:00.419Z,100686.02
2023-03-29T11:19:36.707Z,100697.41
2023-03-29T11:22:30.565Z,100699.77
2023-03-29T11:25:16.182Z,100680.46
2023-03-29T11:28:01.301Z,100687.22
2023-03-29T11:30:44.436Z,100702.17
2023-03-29T11:33:39.472Z,100710.30
2023-03-29T11:36:39.549Z,100696.95
2023-03-29T11:39:26.557Z,100693.77
2023-03-29T11:42:11.702Z,100693.67
2023-03-29T11:44:47.077Z,100673.84
2023-03-29T11:47:32.066Z,100660.63
2023-03-29T11:50:26.985Z,100641.13
2023-03-29T11:53:10.708Z,100643.16
2023-03-29T11:55:45.793Z,100666.58
2023-03-29T11:58:31.676Z,100660.73
2023-03-29T12:01:16.595Z,100663.84
2023-03-29T12:04:09.448Z,100660.45
2023-03-29T12:06:51.770Z,100665.19
2023-03-29T12:09:40.830Z,100665.69
2023-03-29T12:12:44.059Z,100682.02
2023-03-29T12:15:33.565Z,100699.11
2023-03-29T12:18:24.980Z,100699.70
2023-03-29T12:21:04.374Z,100712.86
2023-03-29T12:23:40.318Z,100715.09
2023-03-29T12:26:41.142Z,100714.13
2023-03-29T12:29:42.648Z,100716.90
2023-03-29T12:32:39.419Z,100700.92
2023-03-29T12:35:53.445Z,100686.24
2023-03-29T12:39:03.738Z,100691.19
2023-03-29T12:42:19.911Z,100683.43
2023-03-29T12:45:36.951Z,100692.94
2023-03-29T12:48:17.503Z,100684.73
2023-03-29T12:50:54.594Z,100696.16
2023-03-29T12:53:43.997Z,100683.30
2023-03-29T12:56:19.428Z,100683.48
2023-03-29T12:59:12.916Z,100694.30
2023-03-29T13:02:06.378Z,100690.08
2023-03-29T13:05:02.602Z,100672.98
2023-03-29T13:07:47.759Z,100672.52
2023-03-29T13:10:42.835Z,100669.48
2023-03-29T13:13:25.254Z,100672.52
2023-03-29T13:16:11.550Z,100677.70
2023-03-29T13:19:01.936Z,100679.14
2023-03-29T13:21:56.552Z,100677.71
2023-03-29T13:24:54.425Z,100664.62
2023-03-29T13:28:02.513Z,100664.02
2023-03-29T13:31:08.958Z,100671.20
2023-03-29T13:34:15.724Z,100680.45
2023-03-29T13:36:57.520Z,100690.73
2023-03-29T13:39:53.569Z,100704.13
2023-03-29T13:42:37.728Z,100698.70
2023-03-29T13:45:26.025Z,100691.65
2023-03-29T13:48:26.520Z,100684.11
2023-03-29T13:51:28.595Z,100687.54
2023-03-29T13:54:22.860Z,100673.00
2023-03-29T13:57:22.185Z,100660.60
2023-03-29T14:00:07.975Z,100682.55
2023-03-29T14:02:58.501Z,100680.67
2023-03-29T14:05:33.767Z,100690.24
2023-03-29T14:08:35.427Z,100693.92
2023-03-29T14:11:21.987Z,100686.23
2023-03-29T14:14:00.301Z,100686.07
2023-03-29T14:16:37.451Z,100683.91
2023-03-29T14:19:34.207Z,100681.63
2023-03-29T14:22:18.457Z,100686.48
2023-03-29T14:24:59.305Z,100687.96
2023-03-29T14:27:34.217Z,100676.29
2023-03-29T14:30:23.060Z,100683.17
2023-03-29T14:32:57.273Z,100693.00
2023-03-29T14:35:35.744Z,100702.23
2023-03-29T14:38:14.048Z,100702.46
2023-03-29T14:40:48.324Z,100702.91
2023-03-29T14:43:24.601Z,100701.25
2023-03-29T14:45:58.046Z,100715.80
2023-03-29T14:48:33.788Z,100706.45
2023-03-29T14:51:07.791Z,100706.14
2023-03-29T14:53:43.198Z,100709.61
2023-03-29T14:56:22.256Z,100716.11
2023-03-29T14:58:59.367Z,100711.28
2023-03-29T15:01:32.772Z,100715.29
2023-03-29T15:04:09.795Z,100716.00
2023-03-29T15:06:47.426Z,100708.97
2023-03-29T15:09:32.578Z,100714.86
2023-03-29T15:12:06.291Z,100733.15
2023-03-29T15:14:39.669Z,100728.58
2023-03-29T15:17:39.444Z,100734.61
2023-03-29T15:20:39.010Z,100737.45
2023-03-29T15:23:24.793Z,100740.38
2023-03-29T15:26:00.254Z,100742.35
2023-03-29T15:28:48.109Z,100749.48
2023-03-29T15:31:23.964Z,100746.25
2023-03-29T15:34:15.316Z,100746.77
2023-03-29T15:36:48.820Z,100752.73
2023-03-29T15:39:23.279Z,100744.89
2023-03-29T15:41:57.901Z,100754.94
2023-03-29T15:44:36.061Z,100740.15
2023-03-29T15:47:17.305Z,100759.89
2023-03-29T15:49:50.256Z,100760.69
2023-03-29T15:52:23.282Z,100750.17
2023-03-29T15:54:55.954Z,100767.38
2023-03-29T15:57:29.266Z,100762.33
2023-03-29T16:00:03.368Z,100767.20
2023-03-29T16:02:47.005Z,100763.69
2023-03-29T16:05:22.333Z,100775.15
2023-03-29T16:07:56.024Z,100778.56
2023-03-29T16:10:31.515Z,100765.52
2023-03-29T16:13:05.413Z,100776.73
2023-03-29T16:15:39.636Z,100777.22
2023-03-29T16:18:13.306Z,100779.58
2023-03-29T16:20:47.230Z,100781.52
2023-03-29T16:23:21.371Z,100767.05
2023-03-29T16:25:55.041Z,100786.48
2023-03-29T16:28:29.097Z,100787.27
2023-03-29T16:31:02.795Z,100787.55
2023-03-29T16:33:36.328Z,100782.52
2023-03-29T16:36:12.126Z,100794.31
2023-03-29T16:38:45.447Z,100785.38
2023-03-29T16:41:19.331Z,100791.34
2023-03-29T16:43:53.327Z,100792.77
2023-03-29T16:46:27.660Z,100786.31
2023-03-29T16:49:01.082Z,100802.77
2023-03-29T16:51:34.237Z,100802.95
2023-03-29T16:54:08.144Z,100803.65
2023-03-29T16:56:41.528Z,100809.36
2023-03-29T16:59:14.731Z,100817.54
2023-03-29T17:01:47.878Z,100815.54
2023-03-29T17:04:21.534Z,100818.39
2023-03-29T17:06:55.456Z,100821.55
2023-03-29T17:09:29.938Z,100822.28
2023-03-29T17:12:03.820Z,100828.10
2023-03-29T17:14:38.131Z,100827.75
2023-03-29T17:17:12.531Z,100829.73
2023-03-29T17:19:46.204Z,100824.02
2023-03-29T17:22:19.700Z,100838.30
2023-03-29T17:24:53.284Z,100831.48
2023-03-29T17:27:27.526Z,100839.83
2023-03-29T17:30:01.283Z,100840.50
2023-03-29T17:32:36.259Z,100846.16
2023-03-29T17:35:10.472Z,100847.48
2023-03-29T17:37:44.513Z,100846.81
2023-03-29T17:40:18.596Z,100848.52
2023-03-29T17:42:53.188Z,100866.30
2023-03-29T17:45:27.582Z,100862.66
2023-03-29T17:48:04.097Z,100876.70
2023-03-29T17:50:39.224Z,100872.05
2023-03-29T17:53:14.028Z,100878.10
2023-03-29T17:55:47.962Z,100881.50
2023-03-29T17:58:23.182Z,100875.16
2023-03-29T18:00:56.590Z,100887.56
2023-03-29T18:03:35.108Z,100886.31
2023-03-29T18:06:09.542Z,100889.39
2023-03-29T18:08:43.048Z,100899.53
2023-03-29T18:11:25.394Z,100902.19
2023-03-29T18:14:01.998Z,100903.18
2023-03-29T18:16:35.240Z,100908.00
2023-03-29T18:19:08.763Z,100911.23
2023-03-29T18:21:42.221Z,100905.61
2023-03-29T18:24:16.900Z,100916.52
2023-03-29T18:26:51.110Z,100913.61
2023-03-29T18:29:25.098Z,100913.12
2023-03-29T18:32:05.174Z,100918.20
2023-03-29T18:34:39.666Z,100919.79
2023-03-29T18:37:16.722Z,100921.35
2023-03-29T18:39:50.989Z,100921.56
2023-03-29T18:42:24.612Z,100918.14
2023-03-29T18:44:57.613Z,100919.20
2023-03-29T18:47:31.458Z,100914.14
2023-03-29T18:50:06.340Z,100928.89
2023-03-29T18:52:40.573Z,100932.70
2023-03-29T18:55:14.647Z,100932.28
2023-03-29T18:57:48.428Z,100923.02
2023-03-29T19:00:23.026Z,100935.84
2023-03-29T19:02:56.883Z,100926.05
2023-03-29T19:05:32.020Z,100925.34
2023-03-29T19:08:06.340Z,100933.98
2023-03-29T19:10:40.544Z,100932.30
2023-03-29T19:13:13.393Z,100933.71
2023-03-29T19:15:48.229Z,100921.34
2023-03-29T19:18:21.485Z,100936.23
2023-03-29T19:20:57.737Z,100933.23
2023-03-29T19:23:31.336Z,100933.70
2023-03-29T19:26:09.158Z,100933.17
2023-03-29T19:28:43.276Z,100933.17
2023-03-29T19:31:16.849Z,100928.23
2023-03-29T19:33:50.622Z,100929.82
2023-03-29T19:36:24.256Z,100925.58
2023-03-29T19:38:57.393Z,100903.14
2023-03-29T19:41:31.482Z,100923.91
2023-03-29T19:44:06.092Z,100913.48
2023-03-29T19:46:39.832Z,100926.67
2023-03-29T19:49:16.071Z,100925.52
2023-03-29T19:51:49.436Z,100925.61
2023-03-29T19:54:22.732Z,100933.34
2023-03-29T19:56:57.844Z,100938.45
2023-03-29T19:59:32.005Z,100920.32
2023-03-29T20:02:05.277Z,100928.60
2023-03-29T20:04:38.417Z,100937.42
2023-03-29T20:07:11.823Z,100938.48
2023-03-29T20:09:45.437Z,100940.66
2023-03-29T20:12:19.258Z,100930.97
2023-03-29T20:14:53.227Z,100929.39
2023-03-29T20:17:32.980Z,100933.86
2023-03-29T20:20:09.936Z,100935.98
2023-03-29T20:22:46.109Z,100938.19
2023-03-29T20:25:19.885Z,100938.81
2023-03-29T20:27:53.936Z,100937.77
2023-03-29T20:30:27.621Z,100941.65
2023-03-29T20:33:01.388Z,100948.21
2023-03-29T20:35:35.642Z,100924.13
2023-03-29T20:38:09.321Z,100922.79
2023-03-29T20:40:43.426Z,100932.42
2023-03-29T20:43:20.851Z,100941.18
2023-03-29T20:45:55.903Z,100936.71
2023-03-29T20:48:32.629Z,100935.95
2023-03-29T20:51:11.123Z,100931.63
2023-03-29T20:53:44.514Z,100931.45
2023-03-29T20:56:19.572Z,100917.55
2023-03-29T20:58:56.254Z,100925.73
2023-03-29T21:01:30.601Z,100920.23
2023-03-29T21:04:05.184Z,100929.48
2023-03-29T21:06:42.069Z,100915.43
2023-03-29T21:09:15.809Z,100926.30
2023-03-29T21:11:49.572Z,100926.45
2023-03-29T21:14:23.335Z,100919.14
2023-03-29T21:16:56.775Z,100924.55
2023-03-29T21:19:30.061Z,100910.39
2023-03-29T21:22:02.997Z,100922.13
2023-03-29T21:24:36.972Z,100924.11
2023-03-29T21:27:10.155Z,100909.31
2023-03-29T21:29:43.285Z,100922.70
2023-03-29T21:32:16.431Z,100923.02
2023-03-29T21:34:49.765Z,100901.23
2023-03-29T21:37:22.935Z,100908.81
2023-03-29T21:39:56.020Z,100917.64
2023-03-29T21:42:29.051Z,100916.19
2023-03-29T21:45:02.450Z,100916.30
2023-03-29T21:47:35.741Z,100905.65
2023-03-29T21:50:09.905Z,100898.79
2023-03-29T21:52:43.286Z,100912.79
2023-03-29T21:55:17.073Z,100901.34
2023-03-29T21:57:51.710Z,100904.38
2023-03-29T22:00:25.664Z,100901.45
2023-03-29T22:02:59.049Z,100884.44
2023-03-29T22:05:33.536Z,100886.27
2023-03-29T22:08:11.298Z,100890.86
2023-03-29T22:10:45.376Z,100899.54
2023-03-29T22:13:19.255Z,100899.53
2023-03-29T22:16:01.141Z,100897.23
2023-03-29T22:18:49.847Z,100893.34
2023-03-29T22:21:25.082Z,100898.23
2023-03-29T22:24:00.176Z,100896.64
2023-03-29T22:26:34.554Z,100897.73
2023-03-29T22:29:07.843Z,100893.86
2023-03-29T22:31:41.940Z,100893.79
2023-03-29T22:34:15.734Z,100894.42
2023-03-29T22:36:49.645Z,100894.27
2023-03-29T22:39:23.096Z,100894.42
2023-03-29T22:41:56.875Z,100887.84
2023-03-29T22:44:30.687Z,100889.39
2023-03-29T22:47:03.710Z,100884.92
2023-03-29T22:49:37.231Z,100894.84
2023-03-29T22:52:10.498Z,100895.87
2023-03-29T22:54:43.455Z,100881.68
2023-03-29T22:57:17.292Z,100875.86
2023-03-29T22:59:50.349Z,100884.59
2023-03-29T23:02:23.539Z,100885.68
2023-03-29T23:04:56.618Z,100879.66
2023-03-29T23:07:30.507Z,100879.82
2023-03-29T23:10:04.579Z,100888.89
2023-03-29T23:12:38.038Z,100890.50
2023-03-29T23:15:12.049Z,100874.00
2023-03-29T23:17:45.180Z,100891.77
2023-03-29T23:20:18.318Z,100887.30
2023-03-29T23:22:52.043Z,100882.73
2023-03-29T23:25:27.363Z,100872.80
2023-03-29T23:28:01.393Z,100870.45
2023-03-29T23:30:38.700Z,100879.45
2023-03-29T23:33:15.617Z,100878.80
2023-03-29T23:35:49.433Z,100875.19
2023-03-29T23:38:24.851Z,100865.42
2023-03-29T23:41:01.284Z,100877.34
2023-03-29T23:43:37.842Z,100876.61
2023-03-29T23:46:13.642Z,100875.45
2023-03-29T23:48:50.758Z,100877.64
2023-03-29T23:51:29.190Z,100875.30
2023-03-29T23:54:02.886Z,100874.72
2023-03-29T23:56:36.090Z,100871.61
2023-03-29T23:59:09.462Z,100869.45
